createdAt,value
2022-09-06T00:00:24.837Z,20.10
2022-09-06T00:02:51.796Z,20.10
2022-09-06T00:05:19.419Z,20.10
2022-09-06T00:07:46.328Z,20.10
2022-09-06T00:10:13.830Z,20.00
2022-09-06T00:12:41.276Z,20.00
2022-09-06T00:15:08.778Z,20.00
2022-09-06T00:17:35.727Z,20.00
2022-09-06T00:20:04.726Z,20.00
2022-09-06T00:22:31.734Z,20.00
2022-09-06T00:24:58.596Z,20.00
2022-09-06T00:27:25.632Z,20.00
2022-09-06T00:29:52.508Z,20.00
2022-09-06T00:32:19.374Z,19.90
2022-09-06T00:34:46.286Z,19.90
2022-09-06T00:37:13.130Z,19.90
2022-09-06T00:39:40.166Z,19.90
2022-09-06T00:42:12.453Z,19.90
2022-09-06T00:44:40.501Z,19.90
2022-09-06T00:47:08.839Z,19.90
2022-09-06T00:49:45.442Z,19.90
2022-09-06T00:52:16.080Z,19.90
2022-09-06T00:54:43.903Z,19.90
2022-09-06T00:57:12.097Z,19.80
2022-09-06T00:59:41.351Z,19.80
2022-09-06T01:02:09.517Z,19.80
2022-09-06T01:04:39.405Z,19.80
2022-09-06T01:07:34.821Z,19.80
2022-09-06T01:10:30.861Z,19.70
2022-09-06T01:13:11.030Z,19.70
2022-09-06T01:16:21.885Z,19.60
2022-09-06T01:19:37.394Z,19.60
2022-09-06T01:22:58.926Z,19.60
2022-09-06T01:26:24.368Z,19.50
2022-09-06T01:28:53.887Z,19.50
2022-09-06T01:31:28.034Z,19.40
2022-09-06T01:34:04.028Z,19.40
2022-09-06T01:37:06.297Z,19.40
2022-09-06T01:39:34.040Z,19.30
2022-09-06T01:42:22.548Z,19.30
2022-09-06T01:45:18.468Z,19.20
2022-09-06T01:48:34.654Z,19.20
2022-09-06T01:51:54.188Z,19.20
2022-09-06T01:54:45.168Z,19.10
2022-09-06T01:57:33.211Z,19.10
2022-09-06T02:00:10.391Z,19.10
2022-09-06T02:02:52.029Z,19.00
2022-09-06T02:05:36.054Z,19.00
2022-09-06T02:08:14.606Z,18.90
2022-09-06T02:10:56.377Z,18.80
2022-09-06T02:13:27.627Z,18.90
2022-09-06T02:16:05.374Z,18.80
2022-09-06T02:19:01.652Z,18.80
2022-09-06T02:21:35.000Z,18.70
2022-09-06T02:24:08.061Z,18.70
2022-09-06T02:26:41.044Z,18.70
2022-09-06T02:29:07.987Z,18.70
2022-09-06T02:31:59.661Z,18.70
2022-09-06T02:34:26.776Z,18.60
2022-09-06T02:36:54.863Z,18.60
2022-09-06T02:39:22.024Z,18.60
2022-09-06T02:41:49.369Z,18.60
2022-09-06T02:44:16.327Z,18.50
2022-09-06T02:46:43.260Z,18.50
2022-09-06T02:49:10.113Z,18.50
2022-09-06T02:51:40.527Z,18.50
2022-09-06T02:54:07.499Z,18.40
2022-09-06T02:56:36.567Z,18.40
2022-09-06T02:59:05.351Z,18.40
2022-09-06T03:01:33.191Z,18.40
2022-09-06T03:04:00.717Z,18.40
2022-09-06T03:06:27.688Z,18.40
2022-09-06T03:08:54.593Z,18.40
2022-09-06T03:11:21.638Z,18.40
2022-09-06T03:13:48.572Z,18.30
2022-09-06T03:16:15.536Z,18.40
2022-09-06T03:18:42.715Z,18.40
2022-09-06T03:21:09.884Z,18.40
2022-09-06T03:23:39.533Z,18.30
2022-09-06T03:26:07.831Z,18.40
2022-09-06T03:28:35.076Z,18.30
2022-09-06T03:31:02.025Z,18.30
2022-09-06T03:33:28.990Z,18.30
2022-09-06T03:36:00.649Z,18.30
2022-09-06T03:38:29.227Z,18.30
2022-09-06T03:40:56.671Z,18.30
2022-09-06T03:43:26.380Z,18.20
2022-09-06T03:45:57.458Z,18.20
2022-09-06T03:48:28.181Z,18.20
2022-09-06T03:50:57.393Z,18.20
2022-09-06T03:53:26.296Z,18.10
2022-09-06T03:55:56.088Z,18.20
2022-09-06T03:58:24.558Z,18.10
2022-09-06T04:01:07.305Z,18.10
2022-09-06T04:03:35.778Z,18.10
2022-09-06T04:06:07.017Z,18.00
2022-09-06T04:08:36.046Z,18.00
2022-09-06T04:11:04.209Z,18.00
2022-09-06T04:13:32.877Z,18.00
2022-09-06T04:16:01.222Z,17.90
2022-09-06T04:18:28.751Z,17.90
2022-09-06T04:20:56.866Z,17.90
2022-09-06T04:23:26.673Z,17.80
2022-09-06T04:25:56.793Z,17.80
2022-09-06T04:28:26.569Z,17.80
2022-09-06T04:30:59.758Z,17.80
2022-09-06T04:33:30.943Z,17.80
2022-09-06T04:36:00.947Z,17.80
2022-09-06T04:38:30.064Z,17.80
2022-09-06T04:40:57.128Z,17.80
2022-09-06T04:43:24.650Z,17.80
2022-09-06T04:45:51.905Z,17.80
2022-09-06T04:48:18.905Z,17.80
2022-09-06T04:50:45.846Z,17.80
2022-09-06T04:53:12.751Z,17.80
2022-09-06T04:55:39.684Z,17.80
2022-09-06T04:58:06.849Z,17.80
2022-09-06T05:00:35.960Z,17.80
2022-09-06T05:03:02.805Z,17.80
2022-09-06T05:05:29.800Z,17.80
2022-09-06T05:07:57.164Z,17.80
2022-09-06T05:10:24.912Z,17.80
2022-09-06T05:12:54.142Z,17.90
2022-09-06T05:15:23.165Z,17.90
2022-09-06T05:17:50.290Z,17.90
2022-09-06T05:20:17.843Z,18.00
2022-09-06T05:22:54.256Z,18.00
2022-09-06T05:25:21.410Z,18.10
2022-09-06T05:27:48.703Z,18.10
2022-09-06T05:30:18.026Z,18.10
2022-09-06T05:32:44.992Z,18.20
2022-09-06T05:35:12.016Z,18.20
2022-09-06T05:37:38.981Z,18.20
2022-09-06T05:40:06.584Z,18.30
2022-09-06T05:42:33.526Z,18.40
2022-09-06T05:45:01.796Z,18.40
2022-09-06T05:47:29.246Z,18.50
2022-09-06T05:49:56.109Z,18.60
2022-09-06T05:52:22.951Z,18.70
2022-09-06T05:54:49.785Z,18.70
2022-09-06T05:57:16.639Z,18.90
2022-09-06T05:59:43.505Z,19.00
2022-09-06T06:02:12.191Z,19.10
2022-09-06T06:04:39.040Z,19.20
2022-09-06T06:07:05.920Z,19.40
2022-09-06T06:09:33.093Z,19.50
2022-09-06T06:11:59.942Z,19.60
2022-09-06T06:14:26.783Z,19.70
2022-09-06T06:16:53.714Z,19.70
2022-09-06T06:19:20.634Z,19.80
2022-09-06T06:21:47.477Z,19.80
2022-09-06T06:24:14.482Z,19.80
2022-09-06T06:26:41.423Z,19.80
2022-09-06T06:29:09.664Z,19.90
2022-09-06T06:31:38.815Z,19.90
2022-09-06T06:34:06.115Z,19.90
2022-09-06T06:36:36.085Z,20.00
2022-09-06T06:39:07.091Z,20.00
2022-09-06T06:41:34.101Z,20.10
2022-09-06T06:44:04.036Z,20.30
2022-09-06T06:46:37.307Z,20.40
2022-09-06T06:49:04.827Z,20.50
2022-09-06T06:51:37.053Z,20.70
2022-09-06T06:54:05.190Z,20.80
2022-09-06T06:56:38.414Z,20.90
2022-09-06T06:59:07.777Z,21.00
2022-09-06T07:01:36.675Z,21.10
2022-09-06T07:04:05.347Z,21.20
2022-09-06T07:12:19.914Z,21.50
2022-09-06T07:14:46.782Z,21.60
2022-09-06T07:17:13.652Z,21.70
2022-09-06T07:22:27.498Z,22.00
2022-09-06T07:24:54.381Z,22.20
2022-09-06T07:30:09.573Z,22.60
2022-09-06T07:32:36.492Z,22.90
2022-09-06T07:35:03.517Z,23.00
2022-09-06T07:37:30.382Z,23.20
2022-09-06T07:39:57.300Z,23.20
2022-09-06T07:42:24.232Z,23.30
2022-09-06T07:44:51.081Z,23.40
2022-09-06T07:53:14.868Z,23.50
2022-09-06T07:55:42.051Z,23.50
2022-09-06T07:58:08.929Z,23.50
2022-09-06T08:00:36.330Z,23.50
2022-09-06T08:03:03.281Z,23.50
2022-09-06T08:11:06.430Z,23.30
2022-09-06T08:13:37.736Z,23.20
2022-09-06T08:16:11.155Z,23.20
2022-09-06T08:18:38.705Z,23.20
2022-09-06T08:21:12.667Z,23.20
2022-09-06T08:23:44.765Z,23.30
2022-09-06T08:26:12.078Z,23.40
2022-09-06T08:28:39.201Z,23.50
2022-09-06T08:31:14.982Z,23.60
2022-09-06T08:33:44.105Z,23.90
2022-09-06T08:36:11.986Z,24.20
2022-09-06T08:38:39.022Z,24.50
2022-09-06T08:41:14.907Z,24.70
2022-09-06T08:44:57.029Z,24.90
2022-09-06T08:47:25.140Z,25.00
2022-09-06T08:50:07.881Z,25.20
2022-09-06T08:53:16.655Z,25.20
2022-09-06T08:55:59.588Z,25.20
2022-09-06T08:58:59.403Z,25.20
2022-09-06T09:01:41.533Z,25.20
2022-09-06T09:04:16.760Z,25.30
2022-09-06T09:06:53.524Z,25.40
2022-09-06T09:09:20.386Z,25.50
2022-09-06T09:11:51.376Z,25.50
2022-09-06T09:14:27.600Z,25.60
2022-09-06T09:17:02.854Z,25.60
2022-09-06T09:19:33.405Z,25.60
2022-09-06T09:22:01.685Z,25.60
2022-09-06T09:24:28.574Z,25.80
2022-09-06T09:27:05.799Z,25.80
2022-09-06T09:29:36.252Z,25.80
2022-09-06T09:32:03.600Z,25.80
2022-09-06T09:34:39.822Z,25.80
2022-09-06T09:40:25.393Z,25.90
2022-09-06T09:42:56.869Z,26.20
2022-09-06T09:45:29.563Z,26.60
2022-09-06T09:47:57.366Z,27.00
2022-09-06T09:50:32.526Z,27.50
2022-09-06T09:53:17.850Z,28.10
2022-09-06T09:55:45.897Z,28.80
2022-09-06T09:58:29.647Z,29.30
2022-09-06T10:01:20.443Z,29.70
2022-09-06T10:09:34.866Z,30.10
2022-09-06T10:12:01.806Z,29.90
2022-09-06T10:14:31.880Z,29.80
2022-09-06T10:17:00.658Z,29.70
2022-09-06T10:19:33.481Z,29.60
2022-09-06T10:22:13.352Z,29.60
2022-09-06T10:24:58.524Z,29.50
2022-09-06T10:27:28.985Z,29.40
2022-09-06T10:30:09.306Z,29.30
2022-09-06T10:33:22.597Z,29.40
2022-09-06T10:35:49.420Z,29.50
2022-09-06T10:39:03.493Z,29.70
2022-09-06T10:41:46.134Z,29.80
2022-09-06T10:45:01.415Z,29.90
2022-09-06T10:48:14.754Z,30.00
2022-09-06T10:51:07.725Z,30.10
2022-09-06T10:53:52.779Z,30.10
2022-09-06T10:56:35.158Z,30.00
2022-09-06T11:02:41.680Z,29.80
2022-09-06T11:05:39.999Z,29.60
2022-09-06T11:09:23.750Z,29.50
2022-09-06T11:12:21.250Z,29.40
2022-09-06T11:14:48.076Z,29.30
2022-09-06T11:17:41.186Z,29.20
2022-09-06T11:20:39.598Z,29.10
2022-09-06T11:23:38.287Z,29.00
2022-09-06T11:26:44.427Z,28.90
2022-09-06T11:29:24.041Z,28.90
2022-09-06T11:34:58.150Z,28.80
2022-09-06T11:37:33.780Z,28.80
2022-09-06T11:42:52.023Z,28.70
2022-09-06T11:45:40.757Z,28.70
2022-09-06T11:48:34.229Z,28.70
2022-09-06T11:51:03.145Z,28.70
2022-09-06T11:53:50.161Z,28.70
2022-09-06T11:56:45.956Z,28.80
2022-09-06T11:59:20.135Z,28.90
2022-09-06T12:01:55.763Z,28.90
2022-09-06T12:04:23.739Z,29.00
2022-09-06T12:07:12.467Z,29.10
2022-09-06T12:09:44.032Z,29.20
2022-09-06T12:12:16.776Z,29.30
2022-09-06T12:14:48.766Z,29.40
2022-09-06T12:17:20.056Z,29.40
2022-09-06T12:20:07.983Z,29.50
2022-09-06T12:22:37.724Z,29.60
2022-09-06T12:25:35.137Z,29.70
2022-09-06T12:28:06.218Z,29.70
2022-09-06T12:30:44.619Z,29.80
2022-09-06T12:33:18.954Z,29.80
2022-09-06T12:36:04.638Z,29.80
2022-09-06T12:38:33.833Z,29.90
2022-09-06T12:41:05.021Z,29.90
2022-09-06T12:43:36.109Z,30.00
2022-09-06T12:46:07.811Z,30.00
2022-09-06T12:48:41.154Z,30.00
2022-09-06T12:51:26.264Z,30.10
2022-09-06T12:54:04.560Z,30.10
2022-09-06T12:56:36.540Z,30.20
2022-09-06T12:59:24.456Z,30.20
2022-09-06T13:02:05.054Z,30.30
2022-09-06T13:04:42.805Z,30.50
2022-09-06T13:07:18.895Z,30.50
2022-09-06T13:09:49.576Z,30.60
2022-09-06T13:12:40.558Z,30.70
2022-09-06T13:15:32.941Z,30.80
2022-09-06T13:18:35.407Z,30.80
2022-09-06T13:21:05.704Z,30.80
2022-09-06T13:23:47.681Z,30.80
2022-09-06T13:26:15.773Z,30.80
2022-09-06T13:28:42.716Z,30.80
2022-09-06T13:31:18.310Z,30.90
2022-09-06T13:33:46.473Z,31.10
2022-09-06T13:36:49.351Z,31.30
2022-09-06T13:39:39.662Z,31.50
2022-09-06T13:42:07.720Z,31.70
2022-09-06T13:44:39.746Z,31.80
2022-09-06T13:47:06.834Z,32.00
2022-09-06T13:49:34.174Z,32.30
2022-09-06T13:52:04.567Z,32.80
2022-09-06T13:54:32.797Z,33.20
2022-09-06T13:57:00.610Z,33.90
2022-09-06T13:59:28.897Z,34.40
2022-09-06T14:02:09.775Z,34.90
2022-09-06T14:04:37.006Z,35.20
2022-09-06T14:07:05.279Z,35.30
2022-09-06T14:09:32.651Z,35.20
2022-09-06T14:12:00.700Z,35.00
2022-09-06T14:14:27.635Z,35.00
2022-09-06T14:16:54.581Z,35.10
2022-09-06T14:19:21.455Z,35.40
2022-09-06T14:21:48.376Z,35.80
2022-09-06T14:24:15.318Z,36.50
2022-09-06T14:26:42.306Z,37.30
2022-09-06T14:29:09.280Z,38.10
2022-09-06T14:31:37.234Z,38.70
2022-09-06T14:34:04.222Z,39.00
2022-09-06T14:36:32.868Z,38.90
2022-09-06T14:39:01.048Z,38.60
2022-09-06T14:41:28.600Z,38.20
2022-09-06T14:43:57.944Z,37.70
2022-09-06T14:46:27.583Z,37.10
2022-09-06T14:49:04.471Z,36.60
2022-09-06T14:51:31.696Z,36.10
2022-09-06T14:54:05.121Z,35.50
2022-09-06T14:56:32.428Z,35.10
2022-09-06T14:59:00.378Z,34.60
2022-09-06T15:01:35.738Z,34.10
2022-09-06T15:04:08.343Z,33.80
2022-09-06T15:06:37.176Z,33.60
2022-09-06T15:09:07.608Z,33.40
2022-09-06T15:11:41.767Z,33.30
2022-09-06T15:14:22.410Z,33.30
2022-09-06T15:16:55.934Z,33.40
2022-09-06T15:19:25.041Z,33.60
2022-09-06T15:21:52.067Z,33.80
2022-09-06T15:24:19.654Z,34.10
2022-09-06T15:26:47.534Z,34.40
2022-09-06T15:29:15.580Z,34.60
2022-09-06T15:31:43.343Z,34.80
2022-09-06T15:34:11.653Z,35.00
2022-09-06T15:36:38.648Z,35.00
2022-09-06T15:39:06.419Z,35.00
2022-09-06T15:41:37.582Z,34.90
2022-09-06T15:44:14.182Z,34.90
2022-09-06T15:46:51.202Z,34.80
2022-09-06T15:49:28.836Z,34.70
2022-09-06T15:52:01.967Z,34.50
2022-09-06T15:54:48.630Z,34.40
2022-09-06T15:57:17.010Z,34.30
2022-09-06T15:59:44.478Z,34.20
2022-09-06T16:02:11.680Z,34.20
2022-09-06T16:04:38.958Z,34.00
2022-09-06T16:07:07.163Z,33.90
2022-09-06T16:09:34.218Z,33.80
2022-09-06T16:12:01.130Z,33.60
2022-09-06T16:14:28.972Z,33.60
2022-09-06T16:16:57.260Z,33.40
2022-09-06T16:19:26.091Z,33.30
2022-09-06T16:21:53.573Z,33.20
2022-09-06T16:24:21.326Z,33.10
2022-09-06T16:26:48.659Z,33.10
2022-09-06T16:29:18.254Z,32.90
2022-09-06T16:31:46.589Z,32.80
2022-09-06T16:34:14.457Z,32.70
2022-09-06T16:36:41.974Z,32.50
2022-09-06T16:39:09.442Z,32.30
2022-09-06T16:41:45.731Z,32.20
2022-09-06T16:44:17.420Z,31.90
2022-09-06T16:46:49.788Z,31.60
2022-09-06T16:49:19.082Z,31.40
2022-09-06T16:51:49.231Z,31.10
2022-09-06T16:54:18.166Z,30.80
2022-09-06T16:56:45.295Z,30.60
2022-09-06T16:59:15.083Z,30.30
2022-09-06T17:01:42.251Z,30.10
2022-09-06T17:04:10.518Z,29.90
2022-09-06T17:06:47.086Z,29.70
2022-09-06T17:09:19.207Z,29.50
2022-09-06T17:11:49.800Z,29.20
2022-09-06T17:14:17.157Z,29.10
2022-09-06T17:17:02.812Z,28.90
2022-09-06T17:19:30.086Z,28.80
2022-09-06T17:21:57.636Z,28.60
2022-09-06T17:24:24.813Z,28.40
2022-09-06T17:26:51.762Z,28.30
2022-09-06T17:29:19.456Z,28.20
2022-09-06T17:31:47.292Z,28.10
2022-09-06T17:34:14.354Z,28.00
2022-09-06T17:36:41.436Z,27.90
2022-09-06T17:39:14.410Z,27.80
2022-09-06T17:41:48.615Z,27.70
2022-09-06T17:44:22.996Z,27.60
2022-09-06T17:47:11.283Z,27.50
2022-09-06T17:49:36.997Z,27.40
2022-09-06T17:52:04.133Z,27.30
2022-09-06T17:54:31.842Z,27.20
2022-09-06T17:56:59.281Z,27.20
2022-09-06T17:59:26.330Z,27.10
2022-09-06T18:01:53.251Z,27.00
2022-09-06T18:04:20.282Z,26.90
2022-09-06T18:06:48.001Z,26.80
2022-09-06T18:09:17.567Z,26.70
2022-09-06T18:11:48.350Z,26.60
2022-09-06T18:14:20.933Z,26.50
2022-09-06T18:16:49.462Z,26.50
2022-09-06T18:19:17.905Z,26.40
2022-09-06T18:21:46.022Z,26.30
2022-09-06T18:24:15.919Z,26.20
2022-09-06T18:26:44.116Z,26.10
2022-09-06T18:29:14.654Z,26.00
2022-09-06T18:31:41.792Z,25.90
2022-09-06T18:34:09.288Z,25.90
2022-09-06T18:36:38.203Z,25.80
2022-09-06T18:39:06.446Z,25.70
2022-09-06T18:41:53.014Z,25.70
2022-09-06T18:44:24.175Z,25.60
2022-09-06T18:46:55.733Z,25.50
2022-09-06T18:49:22.877Z,25.40
2022-09-06T18:51:50.370Z,25.30
2022-09-06T18:54:17.579Z,25.30
2022-09-06T18:56:44.880Z,25.20
2022-09-06T18:59:14.085Z,25.10
2022-09-06T19:01:42.760Z,25.00
2022-09-06T19:04:10.884Z,24.90
2022-09-06T19:06:41.219Z,24.90
2022-09-06T19:09:12.861Z,24.80
2022-09-06T19:11:42.693Z,24.80
2022-09-06T19:14:09.978Z,24.80
2022-09-06T19:16:37.473Z,24.80
2022-09-06T19:19:13.415Z,24.70
2022-09-06T19:21:42.270Z,24.70
2022-09-06T19:24:11.911Z,24.70
2022-09-06T19:26:42.782Z,24.70
2022-09-06T19:29:17.718Z,24.60
2022-09-06T19:31:47.010Z,24.60
2022-09-06T19:34:15.592Z,24.60
2022-09-06T19:36:44.471Z,24.60
2022-09-06T19:39:15.983Z,24.50
2022-09-06T19:41:45.088Z,24.50
2022-09-06T19:44:12.706Z,24.50
2022-09-06T19:46:45.651Z,24.50
2022-09-06T19:49:21.820Z,24.40
2022-09-06T19:51:50.659Z,24.40
2022-09-06T19:54:18.195Z,24.40
2022-09-06T19:56:46.461Z,24.40
2022-09-06T19:59:15.261Z,24.30
2022-09-06T20:01:45.777Z,24.30
2022-09-06T20:04:14.530Z,24.30
2022-09-06T20:06:42.032Z,24.20
2022-09-06T20:09:10.701Z,24.10
2022-09-06T20:11:39.809Z,24.10
2022-09-06T20:14:07.580Z,24.10
2022-09-06T20:16:39.362Z,23.90
2022-09-06T20:19:08.581Z,23.90
2022-09-06T20:21:35.576Z,23.80
2022-09-06T20:24:02.857Z,23.70
2022-09-06T20:26:30.454Z,23.70
2022-09-06T20:29:00.895Z,23.60
2022-09-06T20:31:30.379Z,23.50
2022-09-06T20:34:00.834Z,23.40
2022-09-06T20:36:27.987Z,23.30
2022-09-06T20:38:55.272Z,23.30
2022-09-06T20:41:25.109Z,23.20
2022-09-06T20:43:58.057Z,23.20
2022-09-06T20:46:30.143Z,23.10
2022-09-06T20:49:04.419Z,23.10
2022-09-06T20:51:33.816Z,23.00
2022-09-06T20:54:02.571Z,23.00
2022-09-06T20:56:41.808Z,22.90
2022-09-06T20:59:12.852Z,22.90
2022-09-06T21:01:43.261Z,22.90
2022-09-06T21:04:14.068Z,22.80
2022-09-06T21:06:41.271Z,22.80
2022-09-06T21:09:11.357Z,22.80
2022-09-06T21:11:38.872Z,22.70
2022-09-06T21:14:07.630Z,22.70
2022-09-06T21:16:34.742Z,22.60
2022-09-06T21:19:05.400Z,22.60
2022-09-06T21:21:34.621Z,22.60
2022-09-06T21:24:04.354Z,22.60
2022-09-06T21:26:31.698Z,22.50
2022-09-06T21:28:59.380Z,22.50
2022-09-06T21:31:32.544Z,22.50
2022-09-06T21:34:05.003Z,22.50
2022-09-06T21:36:35.816Z,22.50
2022-09-06T21:39:05.977Z,22.40
2022-09-06T21:41:36.800Z,22.50
2022-09-06T21:44:06.650Z,22.40
2022-09-06T21:46:37.249Z,22.30
2022-09-06T21:49:08.905Z,22.30
2022-09-06T21:51:36.818Z,22.30
2022-09-06T21:54:04.769Z,22.30
2022-09-06T21:56:38.015Z,22.20
2022-09-06T21:59:06.207Z,22.20
2022-09-06T22:01:35.602Z,22.20
2022-09-06T22:04:04.196Z,22.20
2022-09-06T22:06:34.010Z,22.10
2022-09-06T22:09:07.625Z,22.10
2022-09-06T22:11:35.386Z,22.10
2022-09-06T22:14:10.657Z,22.10
2022-09-06T22:16:40.201Z,22.00
2022-09-06T22:19:09.262Z,22.00
2022-09-06T22:21:38.575Z,22.00
2022-09-06T22:24:12.001Z,22.00
2022-09-06T22:26:40.985Z,22.00
2022-09-06T22:29:11.088Z,22.00
2022-09-06T22:31:39.057Z,21.90
2022-09-06T22:34:07.135Z,21.90
2022-09-06T22:36:34.453Z,21.90
2022-09-06T22:39:01.452Z,21.80
2022-09-06T22:41:31.464Z,21.90
2022-09-06T22:44:01.384Z,21.80
2022-09-06T22:46:29.710Z,21.80
2022-09-06T22:48:57.156Z,21.80
2022-09-06T22:51:24.072Z,21.80
2022-09-06T22:53:51.195Z,21.70
2022-09-06T22:56:18.170Z,21.70
2022-09-06T22:58:45.148Z,21.70
2022-09-06T23:01:15.456Z,21.70
2022-09-06T23:03:43.915Z,21.70
2022-09-06T23:06:11.477Z,21.60
2022-09-06T23:08:40.367Z,21.60
2022-09-06T23:11:11.682Z,21.60
2022-09-06T23:13:43.342Z,21.60
2022-09-06T23:16:14.712Z,21.50
2022-09-06T23:18:42.336Z,21.50
2022-09-06T23:21:13.666Z,21.40
2022-09-06T23:23:42.548Z,21.40
2022-09-06T23:26:20.165Z,21.40
2022-09-06T23:28:51.206Z,21.40
2022-09-06T23:31:18.792Z,21.30
2022-09-06T23:33:45.815Z,21.30
2022-09-06T23:36:14.901Z,21.20
2022-09-06T23:38:43.349Z,21.20
2022-09-06T23:41:11.152Z,21.20
2022-09-06T23:43:41.062Z,21.20
2022-09-06T23:46:09.962Z,21.20
2022-09-06T23:48:37.403Z,21.10
2022-09-06T23:51:05.353Z,21.10
2022-09-06T23:53:32.926Z,21.10
2022-09-06T23:55:59.976Z,21.10
2022-09-06T23:58:27.504Z,21.10
